createdAt,value
2022-12-17T00:00:16.760Z,57.84
2022-12-17T00:03:02.882Z,57.76
2022-12-17T00:05:48.277Z,57.65
2022-12-17T00:08:34.065Z,57.70
2022-12-17T00:11:20.311Z,57.76
2022-12-17T00:14:06.481Z,57.85
2022-12-17T00:16:52.661Z,57.73
2022-12-17T00:19:39.499Z,57.76
2022-12-17T00:22:34.154Z,57.75
2022-12-17T00:25:19.821Z,57.66
2022-12-17T00:28:06.648Z,57.62
2022-12-17T00:30:52.947Z,57.69
2022-12-17T00:33:39.923Z,57.90
2022-12-17T00:36:27.082Z,57.77
2022-12-17T00:39:12.463Z,57.90
2022-12-17T00:42:15.527Z,57.92
2022-12-17T00:45:01.694Z,57.97
2022-12-17T00:47:47.491Z,57.88
2022-12-17T00:50:35.471Z,57.73
2022-12-17T00:53:21.384Z,57.97
2022-12-17T00:56:07.480Z,57.87
2022-12-17T00:58:54.720Z,57.75
2022-12-17T01:01:41.257Z,57.81
2022-12-17T01:04:27.543Z,57.64
2022-12-17T01:07:13.286Z,57.81
2022-12-17T01:09:58.720Z,57.75
2022-12-17T01:12:44.761Z,57.75
2022-12-17T01:15:30.462Z,57.82
2022-12-17T01:18:16.031Z,57.88
2022-12-17T01:21:06.731Z,57.76
2022-12-17T01:23:52.514Z,57.73
2022-12-17T01:26:38.026Z,57.55
2022-12-17T01:29:23.609Z,57.88
2022-12-17T01:32:10.252Z,57.98
2022-12-17T01:34:56.412Z,57.90
2022-12-17T01:37:41.990Z,58.00
2022-12-17T01:40:28.609Z,57.83
2022-12-17T01:43:15.429Z,58.00
2022-12-17T01:46:08.002Z,57.98
2022-12-17T01:49:01.053Z,57.81
2022-12-17T01:51:48.276Z,58.04
2022-12-17T01:54:36.366Z,57.90
2022-12-17T01:57:31.216Z,58.07
2022-12-17T02:00:26.575Z,58.02
2022-12-17T02:03:12.306Z,57.99
2022-12-17T02:06:34.876Z,57.88
2022-12-17T02:09:31.602Z,58.07
2022-12-17T02:12:29.447Z,58.01
2022-12-17T02:15:33.767Z,58.03
2022-12-17T02:18:25.432Z,58.00
2022-12-17T02:21:13.837Z,58.08
2022-12-17T02:24:23.497Z,58.05
2022-12-17T02:27:13.715Z,58.00
2022-12-17T02:30:07.585Z,57.94
2022-12-17T02:32:57.933Z,58.09
2022-12-17T02:35:50.182Z,58.17
2022-12-17T02:38:39.450Z,58.14
2022-12-17T02:41:29.786Z,58.03
2022-12-17T02:44:16.692Z,57.99
2022-12-17T02:47:03.633Z,58.22
2022-12-17T02:49:52.262Z,58.02
2022-12-17T02:52:40.090Z,58.12
2022-12-17T02:55:26.704Z,58.11
2022-12-17T02:58:12.540Z,58.12
2022-12-17T03:00:59.884Z,58.19
2022-12-17T03:03:50.088Z,58.04
2022-12-17T03:06:36.190Z,58.15
2022-12-17T03:09:22.267Z,58.34
2022-12-17T03:12:07.680Z,58.24
2022-12-17T03:14:54.719Z,58.09
2022-12-17T03:17:40.465Z,58.10
2022-12-17T03:20:27.445Z,58.06
2022-12-17T03:23:21.383Z,58.15
2022-12-17T03:26:07.125Z,58.10
2022-12-17T03:28:56.624Z,58.13
2022-12-17T03:31:43.203Z,58.25
2022-12-17T03:34:29.166Z,58.24
2022-12-17T03:37:21.557Z,58.14
2022-12-17T03:40:12.719Z,58.33
2022-12-17T03:42:58.476Z,58.18
2022-12-17T03:45:45.228Z,58.34
2022-12-17T03:48:33.869Z,58.15
2022-12-17T03:51:20.781Z,58.25
2022-12-17T03:54:06.841Z,58.35
2022-12-17T03:56:54.652Z,58.20
2022-12-17T03:59:40.441Z,58.21
2022-12-17T04:02:27.886Z,58.38
2022-12-17T04:05:19.687Z,58.28
2022-12-17T04:08:07.762Z,58.33
2022-12-17T04:10:53.984Z,58.28
2022-12-17T04:13:41.376Z,58.17
2022-12-17T04:16:28.476Z,58.35
2022-12-17T04:19:15.308Z,58.34
2022-12-17T04:22:02.992Z,58.14
2022-12-17T04:24:49.311Z,58.36
2022-12-17T04:27:34.855Z,58.29
2022-12-17T04:30:20.710Z,58.34
2022-12-17T04:33:09.306Z,58.51
2022-12-17T04:35:54.942Z,58.34
2022-12-17T04:38:40.684Z,58.32
2022-12-17T04:41:26.888Z,58.44
2022-12-17T04:44:14.921Z,58.36
2022-12-17T04:47:00.384Z,58.35
2022-12-17T04:49:45.679Z,58.26
2022-12-17T04:52:31.172Z,58.39
2022-12-17T04:55:16.549Z,58.43
2022-12-17T04:58:01.795Z,58.36
2022-12-17T05:00:48.544Z,58.48
2022-12-17T05:03:36.143Z,58.58
2022-12-17T05:06:22.375Z,58.51
2022-12-17T05:09:08.326Z,58.48
2022-12-17T05:11:53.606Z,58.51
2022-12-17T05:14:39.312Z,58.58
2022-12-17T05:17:25.899Z,58.55
2022-12-17T05:20:12.142Z,58.50
2022-12-17T05:23:00.796Z,58.53
2022-12-17T05:25:51.784Z,58.72
2022-12-17T05:28:37.335Z,58.55
2022-12-17T05:31:31.414Z,58.64
2022-12-17T05:34:17.288Z,58.73
2022-12-17T05:37:02.606Z,58.52
2022-12-17T05:39:47.976Z,58.38
2022-12-17T05:42:35.387Z,58.44
2022-12-17T05:45:21.958Z,58.67
2022-12-17T05:48:07.321Z,58.63
2022-12-17T05:50:53.157Z,58.46
2022-12-17T05:53:39.423Z,58.37
2022-12-17T05:56:26.202Z,58.57
2022-12-17T05:59:11.982Z,58.42
2022-12-17T06:01:59.253Z,58.72
2022-12-17T06:04:47.811Z,58.55
2022-12-17T06:07:33.261Z,58.46
2022-12-17T06:10:19.544Z,58.52
2022-12-17T06:13:14.343Z,58.56
2022-12-17T06:16:00.580Z,58.63
2022-12-17T06:18:46.126Z,58.70
2022-12-17T06:21:32.477Z,58.71
2022-12-17T06:24:18.716Z,58.84
2022-12-17T06:27:04.277Z,58.63
2022-12-17T06:29:50.749Z,58.50
2022-12-17T06:32:37.249Z,58.52
2022-12-17T06:35:23.403Z,58.73
2022-12-17T06:38:20.359Z,58.86
2022-12-17T06:41:06.450Z,58.74
2022-12-17T06:43:52.804Z,58.66
2022-12-17T06:46:40.626Z,58.51
2022-12-17T06:49:26.874Z,58.71
2022-12-17T06:52:12.398Z,58.58
2022-12-17T06:54:59.109Z,58.46
2022-12-17T06:57:50.220Z,58.64
2022-12-17T07:00:36.353Z,58.46
2022-12-17T07:03:21.937Z,58.67
2022-12-17T07:06:08.249Z,58.69
2022-12-17T07:08:53.851Z,58.63
2022-12-17T07:11:39.661Z,58.58
2022-12-17T07:14:25.469Z,58.42
2022-12-17T07:17:10.873Z,58.33
2022-12-17T07:19:59.063Z,58.42
2022-12-17T07:22:44.820Z,58.27
2022-12-17T07:25:30.640Z,58.30
2022-12-17T07:28:16.727Z,58.38
2022-12-17T07:31:02.847Z,58.48
2022-12-17T07:33:48.714Z,58.42
2022-12-17T07:36:34.581Z,58.29
2022-12-17T07:39:20.267Z,58.50
2022-12-17T07:42:06.870Z,58.43
2022-12-17T07:44:53.352Z,58.38
2022-12-17T07:47:38.875Z,58.74
2022-12-17T07:50:25.775Z,58.51
2022-12-17T07:53:19.641Z,58.73
2022-12-17T07:56:06.029Z,58.86
2022-12-17T07:58:51.707Z,58.95
2022-12-17T08:01:38.482Z,58.77
2022-12-17T08:04:24.043Z,58.99
2022-12-17T08:07:18.583Z,58.92
2022-12-17T08:10:04.108Z,58.99
2022-12-17T08:12:50.517Z,58.91
2022-12-17T08:15:36.630Z,59.03
2022-12-17T08:18:26.439Z,59.01
2022-12-17T08:21:13.457Z,59.04
2022-12-17T08:24:00.062Z,59.28
2022-12-17T08:26:48.788Z,59.27
2022-12-17T08:29:34.239Z,59.22
2022-12-17T08:32:20.846Z,59.38
2022-12-17T08:35:06.179Z,59.34
2022-12-17T08:37:54.318Z,59.48
2022-12-17T08:40:39.964Z,59.45
2022-12-17T08:43:25.857Z,59.40
2022-12-17T08:46:12.950Z,59.34
2022-12-17T08:49:00.784Z,59.36
2022-12-17T08:51:46.852Z,59.43
2022-12-17T08:57:30.598Z,59.44
2022-12-17T09:00:16.424Z,59.47
2022-12-17T09:03:02.111Z,59.54
2022-12-17T09:05:48.200Z,59.59
2022-12-17T09:08:33.474Z,59.68
2022-12-17T09:11:19.528Z,59.66
2022-12-17T09:14:06.558Z,59.78
2022-12-17T09:16:53.181Z,59.90
2022-12-17T09:19:38.936Z,59.82
2022-12-17T09:22:24.722Z,59.88
2022-12-17T09:31:46.429Z,60.04
2022-12-17T09:34:33.304Z,60.05
2022-12-17T09:37:20.483Z,60.17
2022-12-17T09:40:06.480Z,60.14
2022-12-17T09:43:19.412Z,60.17
2022-12-17T09:46:41.319Z,60.10
2022-12-17T09:49:37.100Z,60.22
2022-12-17T09:52:38.755Z,60.30
2022-12-17T09:55:59.491Z,60.39
2022-12-17T09:58:47.362Z,60.35
2022-12-17T10:01:43.233Z,60.38
2022-12-17T10:04:36.356Z,60.53
2022-12-17T10:07:23.125Z,60.43
2022-12-17T10:10:10.616Z,60.55
2022-12-17T10:12:56.243Z,60.57
2022-12-17T10:15:42.184Z,60.49
2022-12-17T10:18:30.661Z,60.60
2022-12-17T10:21:18.265Z,60.69
2022-12-17T10:24:03.804Z,60.71
2022-12-17T10:26:51.419Z,60.84
2022-12-17T10:29:47.718Z,60.91
2022-12-17T10:32:34.049Z,60.81
2022-12-17T10:35:45.244Z,60.93
2022-12-17T10:38:30.817Z,61.03
2022-12-17T10:41:16.676Z,61.00
2022-12-17T10:44:02.302Z,61.18
2022-12-17T10:46:53.124Z,61.16
2022-12-17T10:49:41.648Z,61.20
2022-12-17T10:52:50.644Z,62.26
2022-12-17T10:55:41.872Z,64.49
2022-12-17T10:58:55.404Z,66.59
2022-12-17T11:01:43.576Z,67.92
2022-12-17T11:04:47.521Z,68.71
2022-12-17T11:07:43.590Z,69.05
2022-12-17T11:10:40.969Z,68.79
2022-12-17T11:13:50.265Z,68.65
2022-12-17T11:16:48.209Z,68.69
2022-12-17T11:19:59.467Z,68.77
2022-12-17T11:23:06.746Z,68.94
2022-12-17T11:26:13.244Z,70.11
2022-12-17T11:28:58.915Z,69.41
2022-12-17T11:32:03.723Z,69.92
2022-12-17T11:35:15.208Z,69.01
2022-12-17T11:38:43.740Z,67.97
2022-12-17T11:41:34.460Z,69.06
2022-12-17T11:44:49.098Z,68.01
2022-12-17T11:47:59.468Z,66.82
2022-12-17T11:50:56.227Z,65.59
2022-12-17T11:54:19.570Z,66.58
2022-12-17T11:57:11.572Z,66.46
2022-12-17T12:00:13.937Z,65.82
2022-12-17T12:03:10.922Z,65.76
2022-12-17T12:06:12.479Z,65.96
2022-12-17T12:09:15.676Z,65.26
2022-12-17T12:12:24.565Z,63.91
2022-12-17T12:15:27.601Z,61.44
2022-12-17T12:18:23.460Z,60.14
2022-12-17T12:21:47.799Z,58.78
2022-12-17T12:24:48.921Z,58.56
2022-12-17T12:27:56.406Z,57.58
2022-12-17T12:30:53.401Z,57.06
2022-12-17T12:34:06.803Z,56.74
2022-12-17T12:36:54.522Z,56.72
2022-12-17T12:40:00.411Z,56.09
2022-12-17T12:43:03.430Z,55.44
2022-12-17T12:46:11.324Z,55.28
2022-12-17T12:49:04.266Z,55.17
2022-12-17T12:51:54.983Z,54.54
2022-12-17T12:54:45.185Z,54.43
2022-12-17T12:57:55.789Z,54.96
2022-12-17T13:00:46.523Z,55.71
2022-12-17T13:03:44.401Z,55.81
2022-12-17T13:06:16.120Z,55.90
2022-12-17T13:08:43.216Z,55.62
2022-12-17T13:11:25.945Z,55.45
2022-12-17T13:13:57.766Z,55.35
2022-12-17T13:16:53.888Z,55.21
2022-12-17T13:20:05.012Z,55.44
2022-12-17T13:22:34.410Z,55.25
2022-12-17T13:25:17.634Z,55.22
2022-12-17T13:27:45.462Z,55.25
2022-12-17T13:30:19.771Z,54.41
2022-12-17T13:33:00.813Z,53.98
2022-12-17T13:35:48.984Z,53.82
2022-12-17T13:38:22.715Z,53.56
2022-12-17T13:41:10.357Z,53.36
2022-12-17T13:43:46.164Z,53.16
2022-12-17T13:46:47.336Z,53.15
2022-12-17T13:49:27.754Z,53.18
2022-12-17T13:52:18.817Z,52.85
2022-12-17T13:54:46.797Z,52.88
2022-12-17T13:57:23.223Z,52.32
2022-12-17T14:00:03.188Z,51.97
2022-12-17T14:02:39.711Z,51.69
2022-12-17T14:05:21.135Z,50.90
2022-12-17T14:07:51.620Z,50.43
2022-12-17T14:10:19.881Z,50.33
2022-12-17T14:12:47.295Z,50.24
2022-12-17T14:15:30.102Z,49.95
2022-12-17T14:17:59.197Z,50.28
2022-12-17T14:20:32.503Z,50.30
2022-12-17T14:23:06.312Z,50.23
2022-12-17T14:25:38.686Z,50.47
2022-12-17T14:28:26.416Z,50.39
2022-12-17T14:34:08.162Z,50.43
2022-12-17T14:36:37.892Z,50.46
2022-12-17T14:39:16.657Z,50.50
2022-12-17T14:42:03.556Z,50.47
2022-12-17T14:44:31.730Z,50.48
2022-12-17T14:47:18.703Z,50.47
2022-12-17T14:50:33.301Z,50.68
2022-12-17T14:53:02.196Z,50.45
2022-12-17T14:55:34.478Z,50.55
2022-12-17T14:58:14.178Z,50.42
2022-12-17T15:00:45.932Z,50.45
2022-12-17T15:03:18.368Z,50.62
2022-12-17T15:05:51.341Z,50.72
2022-12-17T15:08:20.754Z,50.84
2022-12-17T15:10:48.055Z,50.94
2022-12-17T15:13:15.270Z,51.00
2022-12-17T15:15:42.384Z,50.94
2022-12-17T15:18:09.444Z,50.96
2022-12-17T15:20:36.789Z,51.13
2022-12-17T15:23:04.034Z,50.92
2022-12-17T15:25:30.908Z,50.95
2022-12-17T15:27:57.766Z,51.12
2022-12-17T15:30:24.674Z,51.30
2022-12-17T15:32:51.541Z,51.35
2022-12-17T15:35:18.473Z,51.40
2022-12-17T15:37:45.290Z,51.52
2022-12-17T15:40:12.434Z,51.49
2022-12-17T15:43:02.898Z,51.61
2022-12-17T15:45:32.994Z,51.68
2022-12-17T15:47:59.786Z,51.75
2022-12-17T15:50:27.070Z,51.84
2022-12-17T15:52:53.986Z,51.82
2022-12-17T15:55:20.912Z,51.92
2022-12-17T15:57:47.675Z,52.00
2022-12-17T16:00:14.920Z,51.96
2022-12-17T16:02:42.056Z,51.99
2022-12-17T16:05:09.288Z,51.87
2022-12-17T16:07:37.995Z,52.05
2022-12-17T16:10:06.411Z,52.17
2022-12-17T16:12:33.356Z,52.11
2022-12-17T16:15:00.415Z,52.39
2022-12-17T16:17:27.526Z,52.54
2022-12-17T16:19:54.445Z,52.45
2022-12-17T16:22:21.336Z,52.60
2022-12-17T16:24:48.385Z,52.53
2022-12-17T16:27:18.179Z,52.77
2022-12-17T16:29:45.948Z,52.72
2022-12-17T16:32:12.779Z,52.81
2022-12-17T16:34:39.640Z,52.80
2022-12-17T16:37:07.804Z,52.99
2022-12-17T16:39:34.636Z,53.02
2022-12-17T16:42:01.591Z,52.87
2022-12-17T16:44:28.427Z,52.85
2022-12-17T16:46:55.369Z,53.04
2022-12-17T16:49:24.162Z,52.96
2022-12-17T16:51:52.662Z,53.05
2022-12-17T16:54:25.984Z,53.13
2022-12-17T16:56:53.311Z,53.21
2022-12-17T16:59:20.197Z,53.30
2022-12-17T17:01:49.075Z,53.15
2022-12-17T17:04:18.019Z,53.03
2022-12-17T17:06:47.827Z,53.11
2022-12-17T17:09:15.725Z,53.35
2022-12-17T17:11:46.891Z,53.47
2022-12-17T17:14:17.117Z,53.43
2022-12-17T17:16:43.898Z,53.51
2022-12-17T17:19:10.699Z,53.43
2022-12-17T17:21:42.140Z,53.53
2022-12-17T17:24:16.830Z,53.68
2022-12-17T17:26:47.664Z,53.40
2022-12-17T17:29:15.089Z,53.75
2022-12-17T17:34:28.751Z,53.68
2022-12-17T17:36:55.535Z,53.68
2022-12-17T17:39:22.371Z,53.54
2022-12-17T17:41:49.173Z,53.37
2022-12-17T17:44:16.167Z,53.61
2022-12-17T17:46:43.007Z,53.85
2022-12-17T17:49:10.704Z,53.92
2022-12-17T17:54:28.645Z,54.10
2022-12-17T17:56:55.829Z,54.15
2022-12-17T17:59:29.486Z,54.10
2022-12-17T18:01:58.195Z,54.05
2022-12-17T18:04:25.415Z,54.12
2022-12-17T18:07:23.542Z,54.04
2022-12-17T18:09:40.712Z,53.85
2022-12-17T18:12:26.647Z,54.03
2022-12-17T18:17:41.031Z,54.13
2022-12-17T18:20:09.912Z,54.22
2022-12-17T18:22:37.311Z,54.21
2022-12-17T18:25:04.713Z,54.21
2022-12-17T18:27:31.529Z,54.10
2022-12-17T18:29:58.424Z,54.17
2022-12-17T18:32:25.254Z,54.30
2022-12-17T18:34:52.258Z,54.21
2022-12-17T18:37:19.149Z,54.31
2022-12-17T18:39:46.049Z,54.35
2022-12-17T18:42:31.507Z,54.55
2022-12-17T18:44:58.521Z,54.47
2022-12-17T18:47:25.697Z,54.72
2022-12-17T18:49:53.210Z,54.74
2022-12-17T18:52:20.276Z,54.72
2022-12-17T18:54:48.383Z,54.47
2022-12-17T18:57:15.225Z,54.57
2022-12-17T18:59:42.149Z,54.60
2022-12-17T19:02:13.632Z,54.63
2022-12-17T19:04:41.297Z,54.72
2022-12-17T19:07:08.228Z,54.65
2022-12-17T19:09:35.850Z,54.50
2022-12-17T19:12:05.415Z,54.46
2022-12-17T19:14:32.685Z,54.62
2022-12-17T19:16:59.587Z,54.73
2022-12-17T19:19:27.033Z,54.84
2022-12-17T19:21:55.367Z,54.72
2022-12-17T19:24:23.647Z,54.90
2022-12-17T19:26:51.808Z,54.79
2022-12-17T19:29:20.588Z,54.72
2022-12-17T19:31:48.190Z,54.71
2022-12-17T19:34:16.841Z,54.86
2022-12-17T19:36:44.734Z,54.79
2022-12-17T19:39:14.769Z,54.69
2022-12-17T19:41:41.642Z,54.73
2022-12-17T19:44:12.443Z,54.87
2022-12-17T19:46:39.806Z,54.94
2022-12-17T19:49:08.600Z,55.05
2022-12-17T19:51:40.337Z,54.85
2022-12-17T19:54:09.101Z,55.03
2022-12-17T19:56:37.179Z,55.01
2022-12-17T19:59:07.580Z,54.96
2022-12-17T20:01:43.998Z,54.95
2022-12-17T20:04:15.760Z,54.82
2022-12-17T20:06:44.401Z,54.88
2022-12-17T20:09:11.744Z,54.74
2022-12-17T20:11:40.171Z,54.98
2022-12-17T20:14:18.100Z,54.99
2022-12-17T20:16:53.734Z,54.86
2022-12-17T20:19:26.495Z,54.93
2022-12-17T20:21:55.151Z,54.71
2022-12-17T20:24:31.220Z,54.78
2022-12-17T20:26:59.223Z,54.75
2022-12-17T20:29:26.304Z,54.85
2022-12-17T20:31:53.777Z,54.92
2022-12-17T20:34:21.488Z,54.96
2022-12-17T20:36:49.038Z,55.20
2022-12-17T20:39:17.983Z,55.12
2022-12-17T20:41:46.634Z,55.12
2022-12-17T20:44:14.982Z,55.10
2022-12-17T20:46:44.238Z,55.18
2022-12-17T20:49:13.796Z,55.28
2022-12-17T20:51:40.896Z,55.13
2022-12-17T20:57:16.203Z,55.03
2022-12-17T20:59:43.396Z,54.86
2022-12-17T21:02:10.626Z,55.08
2022-12-17T21:04:37.492Z,55.03
2022-12-17T21:07:04.440Z,54.90
2022-12-17T21:09:31.324Z,55.18
2022-12-17T21:11:58.676Z,55.15
2022-12-17T21:14:29.164Z,54.99
2022-12-17T21:16:58.968Z,55.39
2022-12-17T21:19:27.639Z,55.26
2022-12-17T21:21:54.580Z,55.06
2022-12-17T21:24:21.631Z,55.06
2022-12-17T21:26:48.518Z,55.29
2022-12-17T21:29:16.933Z,55.23
2022-12-17T21:31:49.513Z,55.45
2022-12-17T21:34:21.767Z,55.25
2022-12-17T21:36:50.563Z,55.20
2022-12-17T21:39:21.281Z,55.21
2022-12-17T21:42:08.128Z,55.27
2022-12-17T21:44:35.914Z,55.37
2022-12-17T21:47:03.082Z,55.29
2022-12-17T21:49:29.973Z,55.20
2022-12-17T21:51:59.368Z,55.27
2022-12-17T21:54:26.504Z,55.41
2022-12-17T21:56:53.663Z,55.42
2022-12-17T21:59:20.623Z,55.50
2022-12-17T22:01:47.650Z,55.52
2022-12-17T22:04:15.155Z,55.45
2022-12-17T22:06:51.143Z,55.62
2022-12-17T22:09:57.309Z,55.43
2022-12-17T22:12:36.169Z,55.54
2022-12-17T22:15:03.553Z,55.27
2022-12-17T22:17:31.057Z,55.44
2022-12-17T22:19:57.981Z,55.42
2022-12-17T22:22:25.082Z,55.54
2022-12-17T22:24:51.916Z,55.26
2022-12-17T22:27:18.942Z,55.37
2022-12-17T22:30:04.655Z,55.42
2022-12-17T22:32:50.226Z,55.54
2022-12-17T22:36:38.229Z,55.45
2022-12-17T22:41:59.401Z,55.38
2022-12-17T22:44:31.624Z,55.45
2022-12-17T22:44:52.202Z,55.41
2022-12-17T22:46:29.182Z,55.46
2022-12-17T22:48:57.619Z,55.48
2022-12-17T22:51:33.155Z,55.54
2022-12-17T22:54:03.762Z,55.60
2022-12-17T22:56:31.149Z,55.81
2022-12-17T22:59:01.031Z,55.62
2022-12-17T23:01:28.244Z,55.89
2022-12-17T23:03:56.566Z,55.68
2022-12-17T23:06:24.026Z,55.86
2022-12-17T23:08:51.647Z,55.72
2022-12-17T23:11:23.609Z,55.77
2022-12-17T23:13:51.156Z,55.71
2022-12-17T23:16:19.050Z,55.76
2022-12-17T23:18:47.356Z,55.73
2022-12-17T23:21:21.040Z,55.83
2022-12-17T23:23:48.115Z,55.53
2022-12-17T23:26:20.561Z,55.72
2022-12-17T23:28:47.616Z,55.81
2022-12-17T23:31:18.016Z,55.89
2022-12-17T23:33:46.547Z,55.75
2022-12-17T23:36:18.846Z,55.87
2022-12-17T23:38:46.776Z,55.90
2022-12-17T23:41:16.284Z,55.78
2022-12-17T23:43:43.813Z,56.06
2022-12-17T23:46:11.594Z,56.04
2022-12-17T23:48:45.311Z,55.81
2022-12-17T23:51:15.010Z,56.07
2022-12-17T23:53:42.903Z,55.88
2022-12-17T23:56:16.364Z,55.88
2022-12-17T23:58:45.093Z,55.82
